Disney Magic — C6PT7 — position and weather

sailwx.info

Track history (hours):
 
Tides and Currents Weather Stations Pressure Air Temp Water Temp Dewpoint Dewpoint Depression Visibility Wind Speed Wind Dir Waves Ship Positions

Disney Magic

Last reported at 2019-Sep-21 14:00 UTC. Time now 2019-Sep-21 23:27 UTC.
Position N 38°18' W 046°36'.

Type: Passenger vessel. MMSI: 308516000.

Wind from 220 at 24 knots

Barometer 1015.3 mb
Air temperature 24.0 ° C
Visibility: greater than 0.5 NM
Dewpoint 21.0 ° C
Water temperature 23.0 ° C

Date/timePositionNaut miles runAvg speedWind from/ knotsBaromVisibWave heightAir tempDewpointWater temp
2019-Sep-21 14:00N 38°18' W 046°36'15118.9 220 / 241015.3 0.5 24.021.023.0
2019-Sep-21 06:00N 39°00' W 043°30'5611.3 230 / 191019.3 18.012.726.0
2019-Sep-21 01:00N 39°24' W 042°24'18923.7 260 / 161019.310.8 23.012.623.0
2019-Sep-20 17:00N 41°48' W 039°42'23921.8 260 / 71021.3 20.013.023.0
2019-Sep-20 06:00N 44°36' W 035°48'6014.9 280 / 211011.310.8 17.011.521.0
2019-Sep-20 02:00N 45°18' W 034°48'27821.4 320 / 351009.310.8 16.014.317.0
2019-Sep-19 13:00N 48°30' W 029°54'20420.4 180 / 21007.310.8 16.014.317.0
2019-Sep-19 03:00N 49°24' W 024°54'7518.8 180 / 29 18.014.616.6
2019-Sep-18 23:00N 49°36' W 023°00'17024.3 150 / 251019.310.8 17.015.317.0
2019-Sep-18 16:00N 50°12' W 018°42'7815.5 140 / 201023.3 19.013.817.0
2019-Sep-18 11:00N 50°24' W 016°42'18022.1 150 / 201027.310.8 17.015.315.0
2019-Sep-18 02:51N 51°04' W 012°05'720.6
2019-Sep-18 02:30N 51°05' W 011°53'817.2
2019-Sep-18 02:00N 51°07' W 011°40'917.1
2019-Sep-18 01:30N 51°09' W 011°27'917.2
2019-Sep-18 01:00N 51°11' W 011°13'917.4
2019-Sep-18 00:29N 51°13' W 010°59'1121.3
2019-Sep-17 23:59N 51°15' W 010°43'1121.2
2019-Sep-17 23:29N 51°16' W 010°26'1121.5
2019-Sep-17 23:00N 51°18' W 010°09'98535.5
2019-Sep-17 23:00N 51°18' W 009°54'1 2.8 050 / 101029.310.8 16.014.217.0
2019-Sep-17 22:31N 51°19' W 009°53'1121.7
2019-Sep-17 22:00N 51°21' W 009°36'1121.8
2019-Sep-17 21:30N 51°24' W 009°19'1121.6
2019-Sep-17 21:00N 51°27' W 009°02'1121.3
2019-Sep-17 20:30N 51°30' W 008°46'1121.1
2019-Sep-17 20:00N 51°34' W 008°30'1020.6
2019-Sep-17 19:30N 51°40' W 008°16'815.3
2019-Sep-17 19:00N 51°47' W 008°16'4 7.6
2019-Sep-17 18:30N 51°51' W 008°18'1 2.4
2019-Sep-17 17:59N 51°50' W 008°20'0 0.0
2019-Sep-17 17:29N 51°50' W 008°20'0 0.0
2019-Sep-17 16:59N 51°50' W 008°20'0 0.0
2019-Sep-17 16:29N 51°50' W 008°20'0 0.0
2019-Sep-17 15:59N 51°50' W 008°20'0 0.0
2019-Sep-17 15:29N 51°50' W 008°20'0 0.0
2019-Sep-17 14:59N 51°50' W 008°20'0 0.0
2019-Sep-17 14:29N 51°50' W 008°20'0 0.0
2019-Sep-17 13:59N 51°50' W 008°20'0 0.0
2019-Sep-17 13:29N 51°50' W 008°20'0 0.0
2019-Sep-17 12:59N 51°50' W 008°20'0 0.0
2019-Sep-17 12:29N 51°50' W 008°20'0 0.0
2019-Sep-17 11:59N 51°50' W 008°20'0 0.0
2019-Sep-17 11:29N 51°50' W 008°20'0 0.0
2019-Sep-17 10:59N 51°50' W 008°20'0 0.0
2019-Sep-17 10:29N 51°50' W 008°20'0 0.0
2019-Sep-17 09:59N 51°50' W 008°20'0 0.0
2019-Sep-17 09:29N 51°50' W 008°20'0 0.0
2019-Sep-17 08:59N 51°50' W 008°20'0 0.0
2019-Sep-17 08:30N 51°50' W 008°20'1 2.7
2019-Sep-17 08:00N 51°51' W 008°18'4 7.7
2019-Sep-17 07:30N 51°47' W 008°16'612.5
2019-Sep-17 07:01N 51°42' W 008°10'816.8
2019-Sep-17 06:31N 51°36' W 008°00'917.6
2019-Sep-17 06:01N 51°30' W 007°50'6376.6
2019-Sep-17 06:00N 51°24' W 007°48'511.0 320 / 111026.310.8 15.0 9.216.6
2019-Sep-17 05:30N 51°24' W 007°39'1121.2
2019-Sep-17 05:01N 51°17' W 007°27'1121.0
2019-Sep-17 04:29N 51°09' W 007°14'1021.1
2019-Sep-17 04:01N 51°02' W 007°03'1121.1
2019-Sep-17 03:31N 50°55' W 006°51'1121.0
2019-Sep-17 02:59N 50°47' W 006°38'1021.0
2019-Sep-17 02:31N 50°41' W 006°27'1427.2
2019-Sep-17 02:00N 50°30' W 006°12'112.0 340 / 101025.310.8 15.011.316.6
2019-Sep-17 01:53N 50°31' W 006°11'2520.2
2019-Sep-17 00:40N 50°09' W 005°54'4617.7
2019-Sep-16 22:04N 49°54' W 004°47'121.1
2019-Sep-16 22:00N 49°54' W 004°45'1021.1
2019-Sep-16 21:31N 49°55' W 004°29'1020.5
2019-Sep-16 21:00N 49°57' W 004°13'1019.9
2019-Sep-16 20:30N 49°58' W 003°57'1019.4
2019-Sep-16 20:00N 49°59' W 003°42'919.0
2019-Sep-16 19:30N 50°02' W 003°28'1019.4
2019-Sep-16 19:01N 50°08' W 003°16'1019.7
2019-Sep-16 18:31N 50°13' W 003°04'1020.0
2019-Sep-16 18:00N 50°19' W 002°50'816.0
2019-Sep-16 17:30N 50°22' W 002°39'613.2
2019-Sep-16 17:00N 50°24' W 002°29'4213.6
2019-Sep-16 17:00N 50°24' W 002°24'815.8 220 / 81022.310.8 17.015.317.5
2019-Sep-16 16:30N 50°31' W 002°19'4 7.8
2019-Sep-16 16:00N 50°35' W 002°21'3 5.4
2019-Sep-16 15:28N 50°34' W 002°26'0 0.1
2019-Sep-16 13:25N 50°34' W 002°26'0 0.0
2019-Sep-16 11:52N 50°34' W 002°26'0 0.0
2019-Sep-16 10:58N 50°34' W 002°26'0 0.0
2019-Sep-16 07:58N 50°34' W 002°26'0 0.1
2019-Sep-16 05:30N 50°34' W 002°26'3 5.1
2019-Sep-16 05:00N 50°35' W 002°22'4 8.8
2019-Sep-16 04:30N 50°33' W 002°15'4 8.6
2019-Sep-16 04:00N 50°31' W 002°09'510.0
2019-Sep-16 03:30N 50°29' W 002°02'510.1
2019-Sep-16 03:00N 50°27' W 001°55'510.2
2019-Sep-16 02:31N 50°25' W 001°47'510.5
2019-Sep-16 02:01N 50°24' W 001°40'293.8
2019-Sep-16 02:00N 50°24' W 001°42'714.3 290 / 91023.310.8 17.013.518.0
2019-Sep-16 01:31N 50°23' W 001°31'510.8
2019-Sep-16 01:00N 50°22' W 001°23'510.7
2019-Sep-16 00:30N 50°22' W 001°15'816.0
2019-Sep-16 00:01N 50°23' W 001°02'917.4
2019-Sep-15 23:30N 50°25' W 000°49'816.2
2019-Sep-15 23:00N 50°27' W 000°37'9526.7
2019-Sep-15 23:00N 50°24' W 000°24'5 9.6 300 / 111023.310.8 18.016.318.0
2019-Sep-15 22:30N 50°29' W 000°25'815.7
2019-Sep-15 22:00N 50°30' W 000°13'815.6
2019-Sep-15 21:30N 50°32' W 000°01'815.3
2019-Sep-15 21:00N 50°34' E 000°11'5 9.1
2019-Sep-15 20:30N 50°35' E 000°18'5 9.4
2019-Sep-15 20:00N 50°37' E 000°25'510.1
2019-Sep-15 19:30N 50°38' E 000°33'511.0
2019-Sep-15 19:01N 50°41' E 000°40'611.7
2019-Sep-15 18:31N 50°44' E 000°47'612.0
2019-Sep-15 18:00N 50°48' E 000°55'816.8
2019-Sep-15 17:31N 50°53' E 001°05'918.4
2019-Sep-15 17:01N 50°60' E 001°15'612.3
2019-Sep-15 16:30N 51°05' E 001°21'2 3.0
2019-Sep-15 15:52N 51°07' E 001°19'0 0.0
2019-Sep-15 15:28N 51°07' E 001°19'0 0.0
2019-Sep-15 14:58N 51°07' E 001°19'0 0.0
2019-Sep-15 14:28N 51°07' E 001°19'0 0.0
2019-Sep-15 13:52N 51°07' E 001°19'0 0.0
2019-Sep-15 13:28N 51°07' E 001°19'0 0.0
2019-Sep-15 12:58N 51°07' E 001°19'0 0.0
2019-Sep-15 12:28N 51°07' E 001°19'0 0.0
2019-Sep-15 11:58N 51°07' E 001°19'0 0.0
2019-Sep-15 11:22N 51°07' E 001°19'0 0.0
2019-Sep-15 10:58N 51°07' E 001°19'0 0.0
2019-Sep-15 10:25N 51°07' E 001°19'0 0.0
2019-Sep-15 09:58N 51°07' E 001°19'0 0.0
2019-Sep-15 09:28N 51°07' E 001°19'0 0.0
2019-Sep-15 08:58N 51°07' E 001°19'0 0.0
2019-Sep-15 08:25N 51°07' E 001°19'0 0.0
2019-Sep-15 07:58N 51°07' E 001°19'0 0.0
2019-Sep-15 07:28N 51°07' E 001°19'0 0.0
2019-Sep-15 06:58N 51°07' E 001°19'0 0.0
2019-Sep-15 06:19N 51°07' E 001°19'0 0.0
2019-Sep-15 05:55N 51°07' E 001°19'0 0.0
2019-Sep-15 05:28N 51°07' E 001°19'0 0.0
2019-Sep-15 04:52N 51°07' E 001°19'0 0.4
2019-Sep-15 04:30N 51°07' E 001°20'4 8.5
2019-Sep-15 04:00N 51°07' E 001°26'611.7
2019-Sep-15 03:30N 51°02' E 001°31'713.2
2019-Sep-15 03:00N 50°56' E 001°26'714.0
2019-Sep-15 02:30N 50°49' E 001°25'817.0
2019-Sep-15 02:01N 50°41' E 001°21'918.5
2019-Sep-15 01:31N 50°35' E 001°10'817.0
2019-Sep-15 01:01N 50°31' E 000°59'917.0
2019-Sep-15 00:30N 50°28' E 000°46'816.8
2019-Sep-15 00:01N 50°25' E 000°34'3167.9
2019-Sep-15 00:00N 50°24' E 000°30'611.5 340 / 71027.310.8 16.014.216.0
2019-Sep-14 23:31N 50°22' E 000°22'816.4
2019-Sep-14 23:00N 50°19' E 000°10'6393.4
2019-Sep-14 23:00N 50°18' E 000°00'0 1.0 340 / 61028.310.8 17.013.516.0
2019-Sep-14 22:30N 50°18' E 000°00'612.8
2019-Sep-14 22:00N 50°16' W 000°09'612.9
2019-Sep-14 21:30N 50°14' W 000°19'713.2
2019-Sep-14 21:00N 50°12' W 000°29'714.1
2019-Sep-14 20:31N 50°11' W 000°40'1020.6
2019-Sep-14 20:01N 50°09' W 000°55'1020.6
2019-Sep-14 19:30N 50°06' W 001°11'1020.4
2019-Sep-14 19:01N 50°04' W 001°26'1019.9
2019-Sep-14 18:30N 50°01' W 001°42'1019.2
2019-Sep-14 18:01N 49°60' W 001°56'918.4
2019-Sep-14 17:30N 49°58' W 002°10'917.7
2019-Sep-14 17:00N 49°56' W 002°24'917.2
2019-Sep-14 16:31N 49°54' W 002°37'1020.4
2019-Sep-14 16:00N 49°51' W 002°52'1020.3
2019-Sep-14 15:31N 49°49' W 003°07'1020.2
2019-Sep-14 15:01N 49°48' W 003°23'1020.1
2019-Sep-14 14:31N 49°48' W 003°38'1020.2
2019-Sep-14 14:00N 49°48' W 003°54'1020.2
2019-Sep-14 13:30N 49°47' W 004°10'1020.1
2019-Sep-14 13:00N 49°46' W 004°25'1020.0
2019-Sep-14 12:30N 49°46' W 004°41'1019.5
2019-Sep-14 12:00N 49°45' W 004°56'3202.9
2019-Sep-14 12:00N 49°42' W 004°54'1019.4 070 / 161032.310.8 16.014.216.6
2019-Sep-14 11:30N 49°44' W 005°08'815.9
2019-Sep-14 11:01N 49°43' W 005°20'816.0
2019-Sep-14 10:30N 49°42' W 005°33'816.4
2019-Sep-14 10:01N 49°45' W 005°45'1017.2
2019-Sep-14 09:26N 49°52' W 005°56'817.6
2019-Sep-14 08:59N 49°59' W 006°01'1218.9
2019-Sep-14 08:22N 50°11' W 006°01'718.8
2019-Sep-14 08:00N 50°18' W 006°01'2318.1
2019-Sep-14 06:45N 50°41' W 006°01'517.6
2019-Sep-14 06:29N 50°45' W 006°01'817.5
2019-Sep-14 06:00N 50°54' W 006°01'917.6
2019-Sep-14 05:31N 51°02' W 006°02'1020.8
2019-Sep-14 05:01N 51°13' W 006°01'1121.1
2019-Sep-14 04:31N 51°23' W 005°60'1121.4
2019-Sep-14 04:00N 51°34' W 005°60'10637.6
2019-Sep-14 04:00N 51°24' W 006°00'2143.0 100 / 131034.310.8 15.011.315.2
2019-Sep-14 03:30N 51°45' W 005°57'1223.3
2019-Sep-14 03:01N 51°56' W 005°52'5024.1
2019-Sep-14 00:56N 52°42' W 005°22'1123.3
2019-Sep-14 00:27N 52°53' W 005°15'3121.9
2019-Sep-13 23:01N 53°22' W 004°56'021.3
2019-Sep-13 23:00N 53°22' W 004°56'11740.2
2019-Sep-13 23:00N 53°30' W 004°42'3 5.1 130 / 131034.310.8 16.014.216.0
2019-Sep-13 22:19N 53°33' W 004°41'620.0
2019-Sep-13 22:00N 53°34' W 004°31'1019.7
2019-Sep-13 21:30N 53°34' W 004°15'1019.5
2019-Sep-13 21:00N 53°34' W 003°58'1019.5
2019-Sep-13 20:31N 53°34' W 003°42'918.1
2019-Sep-13 20:00N 53°33' W 003°26'612.1
2019-Sep-13 19:30N 53°32' W 003°17'510.1
2019-Sep-13 19:01N 53°32' W 003°08'5 9.9
2019-Sep-13 18:30N 53°28' W 003°03'4 7.3
2019-Sep-13 18:00N 53°25' W 003°00'0 0.0
2019-Sep-13 17:30N 53°25' W 003°00'0 0.0
2019-Sep-13 17:00N 53°25' W 003°00'0 0.0
2019-Sep-13 16:30N 53°25' W 003°00'0 0.0
2019-Sep-13 16:00N 53°25' W 003°00'0 0.0
2019-Sep-13 15:30N 53°25' W 003°00'0 0.0
2019-Sep-13 15:00N 53°25' W 003°00'0 0.0
2019-Sep-13 14:30N 53°25' W 003°00'0 0.0
2019-Sep-13 14:00N 53°25' W 003°00'0 0.0
2019-Sep-13 13:30N 53°25' W 003°00'0 0.0
2019-Sep-13 13:00N 53°25' W 003°00'0 0.0
2019-Sep-13 12:30N 53°25' W 003°00'0 0.0
2019-Sep-13 12:00N 53°25' W 003°00'0 0.0
2019-Sep-13 11:30N 53°25' W 003°00'0 0.0
2019-Sep-13 11:00N 53°25' W 003°00'0 0.0
2019-Sep-13 10:30N 53°25' W 003°00'0 0.0
2019-Sep-13 10:00N 53°25' W 003°00'0 0.0
2019-Sep-13 09:30N 53°25' W 003°00'0 0.0
2019-Sep-13 09:00N 53°25' W 003°00'0 0.0
2019-Sep-13 08:30N 53°25' W 003°00'0 0.0
2019-Sep-13 08:00N 53°25' W 003°00'0 0.0
2019-Sep-13 07:30N 53°25' W 003°00'0 0.0
2019-Sep-13 07:00N 53°25' W 003°00'0 0.6
2019-Sep-13 06:30N 53°25' W 003°01'4 8.4
2019-Sep-13 06:00N 53°28' W 003°04'510.2
2019-Sep-13 05:30N 53°32' W 003°11'510.3
2019-Sep-13 05:00N 53°31' W 003°19'611.4
2019-Sep-13 04:31N 53°31' W 003°29'1020.1
2019-Sep-13 04:01N 53°32' W 003°46'6359.8
2019-Sep-13 04:00N 53°30' W 003°36'1633.4 330 / 131034.810.8 14.012.114.6
2019-Sep-13 03:31N 53°36' W 004°01'1120.0
2019-Sep-13 02:59N 53°40' W 004°18'3517.6
2019-Sep-13 01:00N 54°00' W 005°06'1224.6 290 / 61032.310.8 13.0 6.714.6
2019-Sep-13 00:31N 54°11' W 005°11'021.1
2019-Sep-13 00:30N 54°11' W 005°11'1020.8
2019-Sep-13 00:01N 54°22' W 005°12'1020.6
2019-Sep-12 23:31N 54°32' W 005°13'1020.8
2019-Sep-12 23:00N 54°43' W 005°15'6 5.7
2019-Sep-12 22:00N 54°48' W 005°18'3436.7 270 / 141030.310.8 16.014.214.0
2019-Sep-12 21:04N 55°21' W 005°05'220.9
2019-Sep-12 20:59N 55°23' W 005°04'1020.6
2019-Sep-12 20:30N 55°32' W 004°60'1021.1
2019-Sep-12 20:01N 55°43' W 004°59'816.6
2019-Sep-12 19:30N 55°51' W 004°57'816.7
2019-Sep-12 19:00N 55°58' W 004°49'6 0.7
2019-Sep-12 11:00N 55°54' W 004°42'5 1.0 240 / 111018.3 2.2 16.014.315.0
2019-Sep-12 05:43N 55°58' W 004°48'2 9.7
2019-Sep-12 05:30N 55°58' W 004°51'713.7
2019-Sep-12 05:01N 55°52' W 004°56'816.4
2019-Sep-12 04:31N 55°44' W 004°59'815.2
2019-Sep-12 04:00N 55°36' W 004°60'1216.0
2019-Sep-12 03:15N 55°24' W 005°04'1818.1
2019-Sep-12 02:16N 55°08' W 005°16'518.7
2019-Sep-12 02:00N 55°03' W 005°19'1220.4
2019-Sep-12 01:24N 54°51' W 005°22'923.0
2019-Sep-12 01:00N 54°42' W 005°18'7513.3
2019-Sep-12 01:00N 54°36' W 005°12'510.1 220 / 151020.310.8 17.011.514.8
2019-Sep-12 00:30N 54°31' W 005°12'1121.2
2019-Sep-12 00:00N 54°21' W 005°09'815.8
2019-Sep-11 23:30N 54°13' W 005°08'4 8.5
2019-Sep-11 23:00N 54°09' W 005°10'4 7.6
2019-Sep-11 22:29N 54°05' W 005°11'4 8.9
2019-Sep-11 22:00N 54°01' W 005°15'2148.7
2019-Sep-11 22:00N 54°00' W 005°12'714.1 250 / 181020.310.8 18.014.617.0
2019-Sep-11 21:29N 54°04' W 005°22'611.5
2019-Sep-11 20:59N 54°09' W 005°17'714.6
2019-Sep-11 20:30N 54°15' W 005°12'918.4
2019-Sep-11 20:00N 54°25' W 005°12'919.0
2019-Sep-11 19:30N 54°34' W 005°15'1019.8
2019-Sep-11 19:00N 54°42' W 005°25'917.5
2019-Sep-11 18:30N 54°43' W 005°40'611.6
2019-Sep-11 18:00N 54°40' W 005°50'3 6.7
2019-Sep-11 17:30N 54°38' W 005°53'0 0.0
2019-Sep-11 17:00N 54°38' W 005°53'0 0.0
2019-Sep-11 16:30N 54°38' W 005°53'0 0.0
2019-Sep-11 16:00N 54°38' W 005°53'0 0.0
2019-Sep-11 15:30N 54°38' W 005°53'0 0.0
2019-Sep-11 15:00N 54°38' W 005°53'0 0.0
2019-Sep-11 14:30N 54°38' W 005°53'0 0.0
2019-Sep-11 14:00N 54°38' W 005°53'  
Track history (hours):
 
Tides and Currents Weather Stations Pressure Air Temp Water Temp Dewpoint Dewpoint Depression Visibility Wind Speed Wind Dir Waves Ship Positions

Disney Magic

Last reported at 2019-Sep-21 14:00 UTC. Time now 2019-Sep-21 23:27 UTC.
Position N 38°18' W 046°36'.

Type: Passenger vessel. MMSI: 308516000.

Wind from 220 at 24 knots

Barometer 1015.3 mb
Air temperature 24.0 ° C
Visibility: greater than 0.5 NM
Dewpoint 21.0 ° C
Water temperature 23.0 ° C

Date/timePositionNaut miles runAvg speedWind from/ knotsBaromVisibWave heightAir tempDewpointWater temp
2019-Sep-21 14:00N 38°18' W 046°36'15118.9 220 / 241015.3 0.5 24.021.023.0
2019-Sep-21 06:00N 39°00' W 043°30'5611.3 230 / 191019.3 18.012.726.0
2019-Sep-21 01:00N 39°24' W 042°24'18923.7 260 / 161019.310.8 23.012.623.0
2019-Sep-20 17:00N 41°48' W 039°42'23921.8 260 / 71021.3 20.013.023.0
2019-Sep-20 06:00N 44°36' W 035°48'6014.9 280 / 211011.310.8 17.011.521.0
2019-Sep-20 02:00N 45°18' W 034°48'27821.4 320 / 351009.310.8 16.014.317.0
2019-Sep-19 13:00N 48°30' W 029°54'20420.4 180 / 21007.310.8 16.014.317.0
2019-Sep-19 03:00N 49°24' W 024°54'7518.8 180 / 29 18.014.616.6
2019-Sep-18 23:00N 49°36' W 023°00'17024.3 150 / 251019.310.8 17.015.317.0
2019-Sep-18 16:00N 50°12' W 018°42'7815.5 140 / 201023.3 19.013.817.0
2019-Sep-18 11:00N 50°24' W 016°42'18022.1 150 / 201027.310.8 17.015.315.0
2019-Sep-18 02:51N 51°04' W 012°05'720.6
2019-Sep-18 02:30N 51°05' W 011°53'817.2
2019-Sep-18 02:00N 51°07' W 011°40'917.1
2019-Sep-18 01:30N 51°09' W 011°27'917.2
2019-Sep-18 01:00N 51°11' W 011°13'917.4
2019-Sep-18 00:29N 51°13' W 010°59'1121.3
2019-Sep-17 23:59N 51°15' W 010°43'1121.2
2019-Sep-17 23:29N 51°16' W 010°26'1121.5
2019-Sep-17 23:00N 51°18' W 010°09'98535.5
2019-Sep-17 23:00N 51°18' W 009°54'1 2.8 050 / 101029.310.8 16.014.217.0
2019-Sep-17 22:31N 51°19' W 009°53'1121.7
2019-Sep-17 22:00N 51°21' W 009°36'1121.8
2019-Sep-17 21:30N 51°24' W 009°19'1121.6
2019-Sep-17 21:00N 51°27' W 009°02'1121.3
2019-Sep-17 20:30N 51°30' W 008°46'1121.1
2019-Sep-17 20:00N 51°34' W 008°30'1020.6
2019-Sep-17 19:30N 51°40' W 008°16'815.3
2019-Sep-17 19:00N 51°47' W 008°16'4 7.6
2019-Sep-17 18:30N 51°51' W 008°18'1 2.4
2019-Sep-17 17:59N 51°50' W 008°20'0 0.0
2019-Sep-17 17:29N 51°50' W 008°20'0 0.0
2019-Sep-17 16:59N 51°50' W 008°20'0 0.0
2019-Sep-17 16:29N 51°50' W 008°20'0 0.0
2019-Sep-17 15:59N 51°50' W 008°20'0 0.0
2019-Sep-17 15:29N 51°50' W 008°20'0 0.0
2019-Sep-17 14:59N 51°50' W 008°20'0 0.0
2019-Sep-17 14:29N 51°50' W 008°20'0 0.0
2019-Sep-17 13:59N 51°50' W 008°20'0 0.0
2019-Sep-17 13:29N 51°50' W 008°20'0 0.0
2019-Sep-17 12:59N 51°50' W 008°20'0 0.0
2019-Sep-17 12:29N 51°50' W 008°20'0 0.0
2019-Sep-17 11:59N 51°50' W 008°20'0 0.0
2019-Sep-17 11:29N 51°50' W 008°20'0 0.0
2019-Sep-17 10:59N 51°50' W 008°20'0 0.0
2019-Sep-17 10:29N 51°50' W 008°20'0 0.0
2019-Sep-17 09:59N 51°50' W 008°20'0 0.0
2019-Sep-17 09:29N 51°50' W 008°20'0 0.0
2019-Sep-17 08:59N 51°50' W 008°20'0 0.0
2019-Sep-17 08:30N 51°50' W 008°20'1 2.7
2019-Sep-17 08:00N 51°51' W 008°18'4 7.7
2019-Sep-17 07:30N 51°47' W 008°16'612.5
2019-Sep-17 07:01N 51°42' W 008°10'816.8
2019-Sep-17 06:31N 51°36' W 008°00'917.6
2019-Sep-17 06:01N 51°30' W 007°50'6376.6
2019-Sep-17 06:00N 51°24' W 007°48'511.0 320 / 111026.310.8 15.0 9.216.6
2019-Sep-17 05:30N 51°24' W 007°39'1121.2
2019-Sep-17 05:01N 51°17' W 007°27'1121.0
2019-Sep-17 04:29N 51°09' W 007°14'1021.1
2019-Sep-17 04:01N 51°02' W 007°03'1121.1
2019-Sep-17 03:31N 50°55' W 006°51'1121.0
2019-Sep-17 02:59N 50°47' W 006°38'1021.0
2019-Sep-17 02:31N 50°41' W 006°27'1427.2
2019-Sep-17 02:00N 50°30' W 006°12'112.0 340 / 101025.310.8 15.011.316.6
2019-Sep-17 01:53N 50°31' W 006°11'2520.2
2019-Sep-17 00:40N 50°09' W 005°54'4617.7
2019-Sep-16 22:04N 49°54' W 004°47'121.1
2019-Sep-16 22:00N 49°54' W 004°45'1021.1
2019-Sep-16 21:31N 49°55' W 004°29'1020.5
2019-Sep-16 21:00N 49°57' W 004°13'1019.9
2019-Sep-16 20:30N 49°58' W 003°57'1019.4
2019-Sep-16 20:00N 49°59' W 003°42'919.0
2019-Sep-16 19:30N 50°02' W 003°28'1019.4
2019-Sep-16 19:01N 50°08' W 003°16'1019.7
2019-Sep-16 18:31N 50°13' W 003°04'1020.0
2019-Sep-16 18:00N 50°19' W 002°50'816.0
2019-Sep-16 17:30N 50°22' W 002°39'613.2
2019-Sep-16 17:00N 50°24' W 002°29'4213.6
2019-Sep-16 17:00N 50°24' W 002°24'815.8 220 / 81022.310.8 17.015.317.5
2019-Sep-16 16:30N 50°31' W 002°19'4 7.8
2019-Sep-16 16:00N 50°35' W 002°21'3 5.4
2019-Sep-16 15:28N 50°34' W 002°26'0 0.1
2019-Sep-16 13:25N 50°34' W 002°26'0 0.0
2019-Sep-16 11:52N 50°34' W 002°26'0 0.0
2019-Sep-16 10:58N 50°34' W 002°26'0 0.0
2019-Sep-16 07:58N 50°34' W 002°26'0 0.1
2019-Sep-16 05:30N 50°34' W 002°26'3 5.1
2019-Sep-16 05:00N 50°35' W 002°22'4 8.8
2019-Sep-16 04:30N 50°33' W 002°15'4 8.6
2019-Sep-16 04:00N 50°31' W 002°09'510.0
2019-Sep-16 03:30N 50°29' W 002°02'510.1
2019-Sep-16 03:00N 50°27' W 001°55'510.2
2019-Sep-16 02:31N 50°25' W 001°47'510.5
2019-Sep-16 02:01N 50°24' W 001°40'293.8
2019-Sep-16 02:00N 50°24' W 001°42'714.3 290 / 91023.310.8 17.013.518.0
2019-Sep-16 01:31N 50°23' W 001°31'510.8
2019-Sep-16 01:00N 50°22' W 001°23'510.7
2019-Sep-16 00:30N 50°22' W 001°15'816.0
2019-Sep-16 00:01N 50°23' W 001°02'917.4
2019-Sep-15 23:30N 50°25' W 000°49'816.2
2019-Sep-15 23:00N 50°27' W 000°37'9526.7
2019-Sep-15 23:00N 50°24' W 000°24'5 9.6 300 / 111023.310.8 18.016.318.0
2019-Sep-15 22:30N 50°29' W 000°25'815.7
2019-Sep-15 22:00N 50°30' W 000°13'815.6
2019-Sep-15 21:30N 50°32' W 000°01'815.3
2019-Sep-15 21:00N 50°34' E 000°11'5 9.1
2019-Sep-15 20:30N 50°35' E 000°18'5 9.4
2019-Sep-15 20:00N 50°37' E 000°25'510.1
2019-Sep-15 19:30N 50°38' E 000°33'511.0
2019-Sep-15 19:01N 50°41' E 000°40'611.7
2019-Sep-15 18:31N 50°44' E 000°47'612.0
2019-Sep-15 18:00N 50°48' E 000°55'816.8
2019-Sep-15 17:31N 50°53' E 001°05'918.4
2019-Sep-15 17:01N 50°60' E 001°15'612.3
2019-Sep-15 16:30N 51°05' E 001°21'2 3.0
2019-Sep-15 15:52N 51°07' E 001°19'0 0.0
2019-Sep-15 15:28N 51°07' E 001°19'0 0.0
2019-Sep-15 14:58N 51°07' E 001°19'0 0.0
2019-Sep-15 14:28N 51°07' E 001°19'0 0.0
2019-Sep-15 13:52N 51°07' E 001°19'0 0.0
2019-Sep-15 13:28N 51°07' E 001°19'0 0.0
2019-Sep-15 12:58N 51°07' E 001°19'0 0.0
2019-Sep-15 12:28N 51°07' E 001°19'0 0.0
2019-Sep-15 11:58N 51°07' E 001°19'0 0.0
2019-Sep-15 11:22N 51°07' E 001°19'0 0.0
2019-Sep-15 10:58N 51°07' E 001°19'0 0.0
2019-Sep-15 10:25N 51°07' E 001°19'0 0.0
2019-Sep-15 09:58N 51°07' E 001°19'0 0.0
2019-Sep-15 09:28N 51°07' E 001°19'0 0.0
2019-Sep-15 08:58N 51°07' E 001°19'0 0.0
2019-Sep-15 08:25N 51°07' E 001°19'0 0.0
2019-Sep-15 07:58N 51°07' E 001°19'0 0.0
2019-Sep-15 07:28N 51°07' E 001°19'0 0.0
2019-Sep-15 06:58N 51°07' E 001°19'0 0.0
2019-Sep-15 06:19N 51°07' E 001°19'0 0.0
2019-Sep-15 05:55N 51°07' E 001°19'0 0.0
2019-Sep-15 05:28N 51°07' E 001°19'0 0.0
2019-Sep-15 04:52N 51°07' E 001°19'0 0.4
2019-Sep-15 04:30N 51°07' E 001°20'4 8.5
2019-Sep-15 04:00N 51°07' E 001°26'611.7
2019-Sep-15 03:30N 51°02' E 001°31'713.2
2019-Sep-15 03:00N 50°56' E 001°26'714.0
2019-Sep-15 02:30N 50°49' E 001°25'817.0
2019-Sep-15 02:01N 50°41' E 001°21'918.5
2019-Sep-15 01:31N 50°35' E 001°10'817.0
2019-Sep-15 01:01N 50°31' E 000°59'917.0
2019-Sep-15 00:30N 50°28' E 000°46'816.8
2019-Sep-15 00:01N 50°25' E 000°34'3167.9
2019-Sep-15 00:00N 50°24' E 000°30'611.5 340 / 71027.310.8 16.014.216.0
2019-Sep-14 23:31N 50°22' E 000°22'816.4
2019-Sep-14 23:00N 50°19' E 000°10'6393.4
2019-Sep-14 23:00N 50°18' E 000°00'0 1.0 340 / 61028.310.8 17.013.516.0
2019-Sep-14 22:30N 50°18' E 000°00'612.8
2019-Sep-14 22:00N 50°16' W 000°09'612.9
2019-Sep-14 21:30N 50°14' W 000°19'713.2
2019-Sep-14 21:00N 50°12' W 000°29'714.1
2019-Sep-14 20:31N 50°11' W 000°40'1020.6
2019-Sep-14 20:01N 50°09' W 000°55'1020.6
2019-Sep-14 19:30N 50°06' W 001°11'1020.4
2019-Sep-14 19:01N 50°04' W 001°26'1019.9
2019-Sep-14 18:30N 50°01' W 001°42'1019.2
2019-Sep-14 18:01N 49°60' W 001°56'918.4
2019-Sep-14 17:30N 49°58' W 002°10'917.7
2019-Sep-14 17:00N 49°56' W 002°24'917.2
2019-Sep-14 16:31N 49°54' W 002°37'1020.4
2019-Sep-14 16:00N 49°51' W 002°52'1020.3
2019-Sep-14 15:31N 49°49' W 003°07'1020.2
2019-Sep-14 15:01N 49°48' W 003°23'1020.1
2019-Sep-14 14:31N 49°48' W 003°38'1020.2
2019-Sep-14 14:00N 49°48' W 003°54'1020.2
2019-Sep-14 13:30N 49°47' W 004°10'1020.1
2019-Sep-14 13:00N 49°46' W 004°25'1020.0
2019-Sep-14 12:30N 49°46' W 004°41'1019.5
2019-Sep-14 12:00N 49°45' W 004°56'3202.9
2019-Sep-14 12:00N 49°42' W 004°54'1019.4 070 / 161032.310.8 16.014.216.6
2019-Sep-14 11:30N 49°44' W 005°08'815.9
2019-Sep-14 11:01N 49°43' W 005°20'816.0
2019-Sep-14 10:30N 49°42' W 005°33'816.4
2019-Sep-14 10:01N 49°45' W 005°45'1017.2
2019-Sep-14 09:26N 49°52' W 005°56'817.6
2019-Sep-14 08:59N 49°59' W 006°01'1218.9
2019-Sep-14 08:22N 50°11' W 006°01'718.8
2019-Sep-14 08:00N 50°18' W 006°01'2318.1
2019-Sep-14 06:45N 50°41' W 006°01'517.6
2019-Sep-14 06:29N 50°45' W 006°01'817.5
2019-Sep-14 06:00N 50°54' W 006°01'917.6
2019-Sep-14 05:31N 51°02' W 006°02'1020.8
2019-Sep-14 05:01N 51°13' W 006°01'1121.1
2019-Sep-14 04:31N 51°23' W 005°60'1121.4
2019-Sep-14 04:00N 51°34' W 005°60'10637.6
2019-Sep-14 04:00N 51°24' W 006°00'2143.0 100 / 131034.310.8 15.011.315.2
2019-Sep-14 03:30N 51°45' W 005°57'1223.3
2019-Sep-14 03:01N 51°56' W 005°52'5024.1
2019-Sep-14 00:56N 52°42' W 005°22'1123.3
2019-Sep-14 00:27N 52°53' W 005°15'3121.9
2019-Sep-13 23:01N 53°22' W 004°56'021.3
2019-Sep-13 23:00N 53°22' W 004°56'11740.2
2019-Sep-13 23:00N 53°30' W 004°42'3 5.1 130 / 131034.310.8 16.014.216.0
2019-Sep-13 22:19N 53°33' W 004°41'620.0
2019-Sep-13 22:00N 53°34' W 004°31'1019.7
2019-Sep-13 21:30N 53°34' W 004°15'1019.5
2019-Sep-13 21:00N 53°34' W 003°58'1019.5
2019-Sep-13 20:31N 53°34' W 003°42'918.1
2019-Sep-13 20:00N 53°33' W 003°26'612.1
2019-Sep-13 19:30N 53°32' W 003°17'510.1
2019-Sep-13 19:01N 53°32' W 003°08'5 9.9
2019-Sep-13 18:30N 53°28' W 003°03'4 7.3
2019-Sep-13 18:00N 53°25' W 003°00'0 0.0
2019-Sep-13 17:30N 53°25' W 003°00'0 0.0
2019-Sep-13 17:00N 53°25' W 003°00'0 0.0
2019-Sep-13 16:30N 53°25' W 003°00'0 0.0
2019-Sep-13 16:00N 53°25' W 003°00'0 0.0
2019-Sep-13 15:30N 53°25' W 003°00'0 0.0
2019-Sep-13 15:00N 53°25' W 003°00'0 0.0
2019-Sep-13 14:30N 53°25' W 003°00'0 0.0
2019-Sep-13 14:00N 53°25' W 003°00'0 0.0
2019-Sep-13 13:30N 53°25' W 003°00'0 0.0
2019-Sep-13 13:00N 53°25' W 003°00'0 0.0
2019-Sep-13 12:30N 53°25' W 003°00'0 0.0
2019-Sep-13 12:00N 53°25' W 003°00'0 0.0
2019-Sep-13 11:30N 53°25' W 003°00'0 0.0
2019-Sep-13 11:00N 53°25' W 003°00'0 0.0
2019-Sep-13 10:30N 53°25' W 003°00'0 0.0
2019-Sep-13 10:00N 53°25' W 003°00'0 0.0
2019-Sep-13 09:30N 53°25' W 003°00'0 0.0
2019-Sep-13 09:00N 53°25' W 003°00'0 0.0
2019-Sep-13 08:30N 53°25' W 003°00'0 0.0
2019-Sep-13 08:00N 53°25' W 003°00'0 0.0
2019-Sep-13 07:30N 53°25' W 003°00'0 0.0
2019-Sep-13 07:00N 53°25' W 003°00'0 0.6
2019-Sep-13 06:30N 53°25' W 003°01'4 8.4
2019-Sep-13 06:00N 53°28' W 003°04'510.2
2019-Sep-13 05:30N 53°32' W 003°11'510.3
2019-Sep-13 05:00N 53°31' W 003°19'611.4
2019-Sep-13 04:31N 53°31' W 003°29'1020.1
2019-Sep-13 04:01N 53°32' W 003°46'6359.8
2019-Sep-13 04:00N 53°30' W 003°36'1633.4 330 / 131034.810.8 14.012.114.6
2019-Sep-13 03:31N 53°36' W 004°01'1120.0
2019-Sep-13 02:59N 53°40' W 004°18'3517.6
2019-Sep-13 01:00N 54°00' W 005°06'1224.6 290 / 61032.310.8 13.0 6.714.6
2019-Sep-13 00:31N 54°11' W 005°11'021.1
2019-Sep-13 00:30N 54°11' W 005°11'1020.8
2019-Sep-13 00:01N 54°22' W 005°12'1020.6
2019-Sep-12 23:31N 54°32' W 005°13'1020.8
2019-Sep-12 23:00N 54°43' W 005°15'6 5.7
2019-Sep-12 22:00N 54°48' W 005°18'3436.7 270 / 141030.310.8 16.014.214.0
2019-Sep-12 21:04N 55°21' W 005°05'220.9
2019-Sep-12 20:59N 55°23' W 005°04'1020.6
2019-Sep-12 20:30N 55°32' W 004°60'1021.1
2019-Sep-12 20:01N 55°43' W 004°59'816.6
2019-Sep-12 19:30N 55°51' W 004°57'816.7
2019-Sep-12 19:00N 55°58' W 004°49'6 0.7
2019-Sep-12 11:00N 55°54' W 004°42'5 1.0 240 / 111018.3 2.2 16.014.315.0
2019-Sep-12 05:43N 55°58' W 004°48'2 9.7
2019-Sep-12 05:30N 55°58' W 004°51'713.7
2019-Sep-12 05:01N 55°52' W 004°56'816.4
2019-Sep-12 04:31N 55°44' W 004°59'815.2
2019-Sep-12 04:00N 55°36' W 004°60'1216.0
2019-Sep-12 03:15N 55°24' W 005°04'1818.1
2019-Sep-12 02:16N 55°08' W 005°16'518.7
2019-Sep-12 02:00N 55°03' W 005°19'1220.4
2019-Sep-12 01:24N 54°51' W 005°22'923.0
2019-Sep-12 01:00N 54°42' W 005°18'7513.3
2019-Sep-12 01:00N 54°36' W 005°12'510.1 220 / 151020.310.8 17.011.514.8
2019-Sep-12 00:30N 54°31' W 005°12'1121.2
2019-Sep-12 00:00N 54°21' W 005°09'815.8
2019-Sep-11 23:30N 54°13' W 005°08'4 8.5
2019-Sep-11 23:00N 54°09' W 005°10'4 7.6
2019-Sep-11 22:29N 54°05' W 005°11'4 8.9
2019-Sep-11 22:00N 54°01' W 005°15'2148.7
2019-Sep-11 22:00N 54°00' W 005°12'714.1 250 / 181020.310.8 18.014.617.0
2019-Sep-11 21:29N 54°04' W 005°22'611.5
2019-Sep-11 20:59N 54°09' W 005°17'714.6
2019-Sep-11 20:30N 54°15' W 005°12'918.4
2019-Sep-11 20:00N 54°25' W 005°12'919.0
2019-Sep-11 19:30N 54°34' W 005°15'1019.8
2019-Sep-11 19:00N 54°42' W 005°25'917.5
2019-Sep-11 18:30N 54°43' W 005°40'611.6
2019-Sep-11 18:00N 54°40' W 005°50'3 6.7
2019-Sep-11 17:30N 54°38' W 005°53'0 0.0
2019-Sep-11 17:00N 54°38' W 005°53'0 0.0
2019-Sep-11 16:30N 54°38' W 005°53'0 0.0
2019-Sep-11 16:00N 54°38' W 005°53'0 0.0
2019-Sep-11 15:30N 54°38' W 005°53'0 0.0
2019-Sep-11 15:00N 54°38' W 005°53'0 0.0
2019-Sep-11 14:30N 54°38' W 005°53'0 0.0
2019-Sep-11 14:00N 54°38' W 005°53'  

Dump ship's entire track history